createdAt,value
2022-11-21T00:04:40.817Z,33.70
2022-11-21T00:09:41.561Z,32.90
2022-11-21T00:14:42.265Z,33.50
2022-11-21T00:19:42.988Z,34.40
2022-11-21T00:24:43.732Z,33.00
2022-11-21T00:29:44.449Z,32.60
2022-11-21T00:34:45.250Z,32.10
2022-11-21T00:39:45.924Z,32.30
2022-11-21T00:44:46.659Z,31.90
2022-11-21T00:49:47.371Z,32.50
2022-11-21T00:54:48.095Z,34.50
2022-11-21T00:59:48.819Z,32.80
2022-11-21T01:04:49.544Z,34.50
2022-11-21T01:09:50.287Z,33.00
2022-11-21T01:14:51.032Z,31.60
2022-11-21T01:19:51.761Z,33.40
2022-11-21T01:24:52.508Z,33.70
2022-11-21T01:29:53.265Z,34.60
2022-11-21T01:34:53.970Z,32.90
2022-11-21T01:39:54.685Z,36.10
2022-11-21T01:44:55.439Z,32.40
2022-11-21T01:49:56.152Z,35.90
2022-11-21T01:54:56.898Z,35.00
2022-11-21T01:59:57.748Z,33.40
2022-11-21T02:04:58.432Z,37.40
2022-11-21T02:09:59.152Z,39.40
2022-11-21T02:14:59.900Z,39.90
2022-11-21T02:20:00.606Z,37.10
2022-11-21T02:25:01.322Z,38.00
2022-11-21T02:30:02.058Z,38.00
2022-11-21T02:35:02.760Z,38.30
2022-11-21T02:40:03.534Z,37.80
2022-11-21T02:45:04.298Z,36.10
2022-11-21T02:50:04.998Z,36.10
2022-11-21T02:55:05.719Z,35.90
2022-11-21T03:00:06.470Z,36.00
2022-11-21T03:05:07.196Z,35.80
2022-11-21T03:10:07.891Z,36.10
2022-11-21T03:15:08.629Z,37.10
2022-11-21T03:20:09.342Z,36.80
2022-11-21T03:25:10.061Z,37.30
2022-11-21T03:30:10.822Z,34.40
2022-11-21T03:35:11.543Z,35.80
2022-11-21T03:40:12.302Z,34.10
2022-11-21T03:45:13.011Z,34.20
2022-11-21T03:50:13.697Z,37.50
2022-11-21T03:55:14.407Z,35.10
2022-11-21T04:00:15.184Z,37.90
2022-11-21T04:05:15.953Z,35.60
2022-11-21T04:10:16.661Z,38.10
2022-11-21T04:15:17.413Z,36.50
2022-11-21T04:20:18.110Z,37.10
2022-11-21T04:25:18.859Z,37.10
2022-11-21T04:30:19.596Z,36.10
2022-11-21T04:35:20.307Z,35.50
2022-11-21T04:40:21.072Z,38.20
2022-11-21T04:45:21.789Z,37.50
2022-11-21T04:50:22.527Z,35.40
2022-11-21T04:55:23.233Z,39.50
2022-11-21T05:00:24.688Z,39.30
2022-11-21T05:05:24.431Z,38.10
2022-11-21T05:10:32.173Z,37.30
2022-11-21T05:15:25.942Z,37.40
2022-11-21T05:20:26.667Z,38.30
2022-11-21T05:25:27.398Z,37.50
2022-11-21T05:30:28.151Z,39.60
2022-11-21T05:35:28.904Z,39.90
2022-11-21T05:40:29.669Z,42.30
2022-11-21T05:45:30.587Z,40.90
2022-11-21T05:50:31.535Z,38.30
2022-11-21T05:55:32.503Z,38.70
2022-11-21T06:00:32.660Z,42.50
2022-11-21T06:17:11.043Z,42.60
2022-11-21T06:22:11.700Z,40.40
2022-11-21T06:27:12.406Z,40.40
2022-11-21T06:32:13.129Z,40.30
2022-11-21T06:37:13.852Z,41.40
2022-11-21T06:42:14.567Z,39.20
2022-11-21T06:47:15.333Z,43.80
2022-11-21T06:52:16.083Z,44.00
2022-11-21T06:57:16.760Z,44.30
2022-11-21T07:02:17.510Z,47.80
2022-11-21T07:07:18.193Z,50.00
2022-11-21T07:12:18.965Z,46.20
2022-11-21T07:17:19.644Z,49.20
2022-11-21T07:22:20.503Z,46.00
2022-11-21T07:27:28.800Z,50.20
2022-11-21T07:32:21.938Z,46.00
2022-11-21T07:37:22.616Z,50.80
2022-11-21T07:42:23.273Z,47.20
2022-11-21T07:47:23.931Z,48.90
2022-11-21T07:52:24.613Z,49.80
2022-11-21T07:57:25.315Z,57.80
2022-11-21T08:02:25.977Z,52.90
2022-11-21T08:07:26.710Z,56.40
2022-11-21T08:12:27.399Z,56.20
2022-11-21T08:17:28.126Z,59.10
2022-11-21T08:22:28.771Z,56.10
2022-11-21T08:27:29.438Z,53.00
2022-11-21T08:32:30.149Z,52.10
2022-11-21T08:37:30.837Z,54.30
2022-11-21T08:42:31.484Z,52.40
2022-11-21T08:47:32.176Z,53.40
2022-11-21T08:52:32.834Z,58.20
2022-11-21T08:57:33.538Z,62.40
2022-11-21T09:02:34.193Z,61.00
2022-11-21T09:07:34.947Z,69.60
2022-11-21T09:12:35.777Z,61.50
2022-11-21T09:17:36.463Z,62.20
2022-11-21T09:22:37.125Z,68.00
2022-11-21T09:27:37.809Z,61.30
2022-11-21T09:32:38.508Z,57.20
2022-11-21T09:37:39.197Z,51.10
2022-11-21T09:42:39.863Z,47.50
2022-11-21T09:47:40.543Z,42.70
2022-11-21T09:52:41.251Z,41.90
2022-11-21T09:57:41.896Z,45.80
2022-11-21T10:02:42.554Z,39.60
2022-11-21T10:07:43.337Z,36.60
2022-11-21T10:12:43.994Z,49.00
2022-11-21T10:17:44.714Z,36.40
2022-11-21T10:22:45.352Z,42.10
2022-11-21T10:27:46.030Z,37.50
2022-11-21T10:32:46.730Z,38.80
2022-11-21T10:37:47.433Z,34.60
2022-11-21T10:42:48.659Z,36.30
2022-11-21T10:47:48.901Z,25.20
2022-11-21T10:52:49.532Z,26.90
2022-11-21T10:57:50.218Z,26.70
2022-11-21T11:02:50.878Z,26.70
2022-11-21T11:07:51.656Z,29.50
2022-11-21T11:13:02.061Z,43.30
2022-11-21T11:17:53.133Z,26.60
2022-11-21T11:22:53.824Z,26.20
2022-11-21T11:27:54.524Z,26.80
2022-11-21T11:32:55.197Z,29.50
2022-11-21T11:37:55.840Z,36.60
2022-11-21T11:42:56.504Z,27.60
2022-11-21T11:47:57.184Z,39.60
2022-11-21T11:52:57.894Z,32.20
2022-11-21T11:57:58.542Z,30.30
2022-11-21T12:02:59.214Z,29.60
2022-11-21T12:13:01.445Z,32.30
2022-11-21T12:18:01.097Z,31.20
2022-11-21T12:23:01.779Z,33.10
2022-11-21T12:28:02.425Z,34.10
2022-11-21T12:33:08.160Z,35.90
2022-11-21T12:38:04.669Z,35.50
2022-11-21T12:43:04.315Z,35.30
2022-11-21T12:48:05.000Z,33.60
2022-11-21T12:53:05.682Z,37.20
2022-11-21T12:58:06.382Z,38.70
2022-11-21T13:03:07.037Z,34.00
2022-11-21T13:08:07.693Z,30.80
2022-11-21T13:13:08.372Z,30.70
2022-11-21T13:18:09.031Z,28.40
2022-11-21T13:23:09.700Z,29.20
2022-11-21T13:28:10.411Z,27.10
2022-11-21T13:33:11.085Z,24.80
2022-11-21T13:38:11.740Z,25.80
2022-11-21T13:48:14.009Z,28.10
2022-11-21T13:53:13.657Z,34.00
2022-11-21T13:58:14.323Z,33.50
2022-11-21T14:03:15.002Z,37.00
2022-11-21T14:08:15.762Z,28.30
2022-11-21T14:13:16.454Z,27.00
2022-11-21T14:18:17.121Z,29.90
2022-11-21T14:23:17.807Z,29.70
2022-11-21T14:28:18.454Z,28.90
2022-11-21T14:33:19.120Z,31.20
2022-11-21T14:38:19.792Z,31.20
2022-11-21T14:43:20.482Z,33.00
2022-11-21T14:48:21.148Z,31.80
2022-11-21T14:53:21.791Z,34.40
2022-11-21T14:58:22.473Z,29.00
2022-11-21T15:03:23.633Z,33.60
2022-11-21T15:13:35.022Z,30.80
2022-11-21T15:18:28.357Z,32.40
2022-11-21T15:23:25.672Z,35.20
2022-11-21T15:28:26.353Z,37.20
2022-11-21T15:33:27.024Z,34.30
2022-11-21T15:38:27.721Z,29.10
2022-11-21T15:43:28.416Z,34.50
2022-11-21T15:48:29.171Z,39.60
2022-11-21T15:53:29.925Z,36.60
2022-11-21T15:58:30.675Z,38.30
2022-11-21T16:03:31.428Z,37.00
2022-11-21T16:08:32.099Z,37.40
2022-11-21T16:13:32.822Z,37.30
2022-11-21T16:18:33.562Z,37.90
2022-11-21T16:23:34.267Z,38.60
2022-11-21T16:28:34.989Z,38.20
2022-11-21T16:33:35.710Z,35.60
2022-11-21T16:38:36.460Z,34.20
2022-11-21T16:43:37.163Z,33.60
2022-11-21T16:48:37.908Z,38.20
2022-11-21T16:53:38.636Z,38.50
2022-11-21T16:58:39.377Z,33.60
2022-11-21T17:03:40.087Z,32.80
2022-11-21T17:08:40.928Z,32.50
2022-11-21T17:13:41.609Z,34.10
2022-11-21T17:18:49.365Z,36.20
2022-11-21T17:23:43.161Z,36.50
2022-11-21T17:28:45.902Z,39.40
2022-11-21T17:33:44.505Z,41.30
2022-11-21T17:38:45.342Z,38.40
2022-11-21T17:43:47.263Z,38.00
2022-11-21T17:48:52.985Z,38.20
2022-11-21T17:53:48.269Z,40.00
2022-11-21T17:58:48.111Z,41.90
2022-11-21T18:03:49.022Z,41.30
2022-11-21T18:08:50.084Z,40.80
2022-11-21T18:13:50.273Z,41.80
2022-11-21T18:18:51.021Z,40.20
2022-11-21T18:23:51.859Z,39.90
2022-11-21T18:29:07.110Z,42.10
2022-11-21T18:33:54.157Z,41.30
2022-11-21T18:39:00.514Z,42.00
2022-11-21T18:43:55.528Z,42.10
2022-11-21T18:49:04.276Z,41.80
2022-11-21T18:53:57.046Z,44.00
2022-11-21T18:58:58.783Z,44.10
2022-11-21T19:03:57.543Z,47.30
2022-11-21T19:08:58.308Z,48.00
2022-11-21T19:13:59.404Z,47.00
2022-11-21T19:19:32.470Z,44.90
2022-11-21T19:24:01.353Z,43.40
2022-11-21T19:29:01.126Z,44.20
2022-11-21T19:34:01.844Z,40.70
2022-11-21T19:39:03.628Z,42.00
2022-11-21T19:44:03.533Z,39.20
2022-11-21T19:49:04.228Z,39.60
2022-11-21T19:54:05.087Z,39.80
2022-11-21T19:59:06.948Z,37.30
2022-11-21T20:04:07.367Z,39.30
2022-11-21T20:09:07.659Z,38.40
2022-11-21T20:14:08.542Z,36.60
2022-11-21T20:19:09.264Z,34.60
2022-11-21T20:24:10.555Z,34.40
2022-11-21T20:29:11.048Z,36.10
2022-11-21T20:34:11.361Z,33.20
2022-11-21T20:39:12.134Z,32.10
2022-11-21T20:49:14.465Z,31.90
2022-11-21T20:54:14.197Z,28.70
2022-11-21T20:59:14.966Z,28.60
2022-11-21T21:04:15.649Z,27.70
2022-11-21T21:09:16.399Z,27.50
2022-11-21T21:14:17.157Z,27.10
2022-11-21T21:19:17.997Z,29.00
2022-11-21T21:24:18.720Z,26.00
2022-11-21T21:29:19.639Z,25.30
2022-11-21T21:34:20.592Z,26.20
2022-11-21T21:39:21.309Z,27.90
2022-11-21T21:44:22.038Z,27.70
2022-11-21T21:49:22.863Z,28.50
2022-11-21T21:54:23.696Z,27.80
2022-11-21T21:59:24.421Z,29.60
2022-11-21T22:04:25.170Z,29.80
2022-11-21T22:09:25.968Z,28.80
2022-11-21T22:14:26.815Z,32.30
2022-11-21T22:19:28.039Z,32.80
2022-11-21T22:24:28.350Z,32.50
2022-11-21T22:29:29.152Z,53.20
2022-11-21T22:34:30.191Z,34.10
2022-11-21T22:39:30.712Z,35.40
2022-11-21T22:44:31.292Z,35.50
2022-11-21T22:49:31.588Z,35.50
2022-11-21T22:54:32.381Z,34.30
2022-11-21T22:59:33.158Z,34.90
2022-11-21T23:04:34.348Z,36.00
2022-11-21T23:09:34.765Z,35.80
2022-11-21T23:14:35.489Z,34.40
2022-11-21T23:19:43.714Z,33.00
2022-11-21T23:24:36.923Z,31.80
2022-11-21T23:29:37.802Z,31.30
2022-11-21T23:34:38.517Z,31.10
2022-11-21T23:39:39.281Z,29.50
2022-11-21T23:44:39.991Z,29.40
2022-11-21T23:49:43.737Z,31.00
2022-11-21T23:54:42.321Z,29.20
2022-11-21T23:59:42.019Z,29.30
